Toney, Alabama
Current Conditions -  °F | °C
As of 11:35 AM on Wednesday 26 Nov 2014 (Local Time) from KMDQ Reporting Station
Clear Clear  
Wind Chill: 50°   Ceiling: Unl
Heat Index: 50°   Visibility: 10mi
Dew Point: 19°   Wind: 0mph
Humidity: 30%   Direction: NA
Pressure: 30.12"   Gusts: NA
Location:  34.9°N, 86.73°W
Report Text: KMDQ 261735Z AUTO 00000KT 10SM CLR 10/M07 A3012 RMK AO2
Loading
Personal Weather Stations






























Interactive Weather Map New forecast layout! Learn more

10-Day Weather Forecast

Advertisements
Track Severe Weather on mobile